Wednesday, April 25, 2018, 5:01 AM EDT
Back to Local

K1P1, Plymouth, Plymouth Municipal Airport

Location: Plymouth, NH, United States Lat: 43.779
Local Time: 5:01 AM EDT ( 9:01 GMT) Lon: -71.754
Time Zone: US/Eastern Elev: 505 ft

Show me the last for .
Show Coded

Time T Td Feel RH Dir Speed Gust Alt SLP Vis Weather Sky Remarks
2018-04-25 04:35 46 38 - 73 - Calm - 30.14 - 10 SCT034 BKN050 BKN065 None
2018-04-25 04:15 47 38 - 70 - Calm - 30.14 - 10 SCT039 SCT048 BKN065 None
2018-04-25 03:55 47 37 - 67 - Calm - 30.15 - 10 SCT039 SCT065 None
2018-04-25 03:35 47 38 - 71 - Calm - 30.15 - 10 CLR None
2018-04-25 03:15 48 37 - 66 - Calm - 30.15 - 10 CLR None
2018-04-25 02:55 50 37 - 60 - Calm - 30.15 - 10 CLR None
2018-04-25 02:35 52 35 - 51 - Calm - 30.15 - 10 CLR None
2018-04-25 02:15 54 34 - 47 - Calm - 30.15 - 10 CLR None
2018-04-25 01:55 54 34 - 45 - Calm - 30.16 - 10 CLR 6-hr Min Temp (2am): 53.4°F
6-hr Max Temp (2am): 62.1°F
2018-04-25 00:55 56 32 - 40 100° 3 - 30.17 - 10 CLR None
2018-04-25 00:35 55 32 - 40 - Calm - 30.17 - 10 CLR None
2018-04-25 00:15 56 29 - 36 - Calm - 30.17 - 10 CLR None
2018-04-24 23:55 57 26 - 30 100° 5 - 30.17 - 10 CLR 24-hr Min Temp (12am): 27.7°F
24-hr Max Temp (12am): 74.1°F
2018-04-24 23:35 57 26 - 29 - Calm - 30.17 - 10 CLR None
2018-04-24 23:15 58 24 - 26 - Calm - 30.17 - 10 CLR None
2018-04-24 22:55 58 23 - 25 - Calm - 30.18 - 10 CLR None
2018-04-24 22:35 58 22 - 24 70° 3 - 30.17 - 10 CLR None
2018-04-24 22:15 56 26 - 31 - Calm - 30.17 - 10 CLR None
2018-04-24 21:55 56 25 - 29 - Calm - 30.17 - 10 CLR None
2018-04-24 21:35 56 28 - 33 - Calm - 30.17 - 10 CLR None
2018-04-24 21:15 55 29 - 35 - Calm - 30.17 - 10 CLR None
2018-04-24 20:55 58 26 - 28 - Calm - 30.16 - 10 CLR None
2018-04-24 20:35 58 24 - 26 - Calm - 30.16 - 10 CLR None
2018-04-24 20:15 62 19 - 18 - Calm - 30.15 - 10 CLR None
2018-04-24 19:55 62 20 - 19 - Calm - 30.15 - 10 CLR 6-hr Min Temp (8pm): 62.1°F
6-hr Max Temp (8pm): 74.1°F
2018-04-24 19:35 64 19 - 17 180° 6 - 30.15 - 10 CLR None
2018-04-24 19:15 66 16 - 14 - Calm - 30.15 - 10 CLR None
2018-04-24 18:55 67 14 - 12 - Calm - 30.14 - 10 CLR None
2018-04-24 18:35 69 15 - 12 210° 3 - 30.15 - 10 CLR None
2018-04-24 18:15 69 13 - 11 - - - 30.15 - 10 CLR None
2018-04-24 17:55 69 14 - 11 - Calm - 30.16 - 10 CLR None
2018-04-24 17:35 70 11 - 10 240° 3 - 30.16 - 10 CLR None
2018-04-24 17:15 70 12 - 10 220° 3 - 30.17 - 10 CLR None
2018-04-24 16:55 70 15 - 11 200° 7 - 30.17 - 10 CLR None
2018-04-24 16:35 71 14 - 11 150° 6 - 30.17 - 10 CLR None
2018-04-24 16:15 71 15 - 11 230° 6 - 30.18 - 10 CLR None
2018-04-24 15:55 74 17 - 11 160° 7 - 30.17 - 10 CLR None
2018-04-24 15:35 72 17 - 11 150° 6 - 30.18 - 10 CLR None
2018-04-24 14:15 71 19 - 13 170° 6 - 30.22 - 10 CLR None
2018-04-24 13:55 71 17 - 12 200° 5 - 30.22 - 10 CLR 6-hr Min Temp (2pm): 34.2°F
6-hr Max Temp (2pm): 71.6°F
2018-04-24 13:35 71 16 - 12 140° 6 - 30.22 - 10 CLR None
2018-04-24 13:15 70 17 - 12 210° 5 - 30.23 - 10 CLR None
2018-04-24 12:55 70 20 - 14 150° 8 - 30.24 - 10 CLR None
2018-04-24 12:35 69 22 - 16 - Calm - 30.26 - 10 CLR None
2018-04-24 12:15 68 26 - 20 290° 7 - 30.27 - 10 CLR None
2018-04-24 11:55 67 26 - 20 250° 7 - 30.28 - 10 CLR None
2018-04-24 11:35 65 28 - 24 - Calm - 30.29 - 10 CLR None
2018-04-24 11:15 63 28 - 25 - Calm - 30.30 - 10 CLR None
2018-04-24 10:55 61 27 - 27 - Calm - 30.32 - 10 CLR None
2018-04-24 10:35 58 28 - 31 - Calm - 30.33 - 10 CLR None
2018-04-24 10:15 55 29 - 35 - Calm - 30.34 - 10 CLR None
2018-04-24 09:55 52 28 - 39 - Calm - 30.35 - 10 CLR None
2018-04-24 09:35 49 27 - 42 - Calm - 30.36 - 10 CLR None
2018-04-24 09:15 46 28 - 49 - - - 30.36 - 10 CLR None
2018-04-24 08:55 43 29 - 57 - Calm - 30.37 - 10 CLR None
2018-04-24 08:35 40 30 - 67 - Calm - 30.37 - 10 CLR None
2018-04-24 08:15 37 29 - 74 - - - 30.38 - 10 CLR None
2018-04-24 07:55 34 30 - 84 - Calm - 30.38 - 10 CLR 6-hr Min Temp (8am): 27.7°F
6-hr Max Temp (8am): 33.8°F
2018-04-24 07:35 32 30 - 91 - Calm - 30.38 - 10 CLR None
2018-04-24 07:15 30 29 - 96 - Calm - 30.38 - 10 CLR None
2018-04-24 06:55 29 28 - 97 - Calm - 30.38 - 10 CLR None
2018-04-24 06:35 28 27 - 97 - Calm - 30.38 - 10 CLR None
2018-04-24 06:15 28 27 - 97 - Calm - 30.37 - 10 CLR None
2018-04-24 05:55 28 27 - 97 - Calm - 30.37 - 10 CLR None
2018-04-24 05:35 28 27 - 96 - Calm - 30.37 - 10 CLR None
2018-04-24 05:15 28 27 - 96 - Calm - 30.37 - 10 CLR None

Support USWX by starting your Amazon purchase here.